createdAt,value
2023-03-13T00:08:23.916Z,-0.7
2023-03-13T00:18:24.090Z,-1.2
2023-03-13T00:28:23.929Z,-0.6
2023-03-13T00:38:24.798Z,-1.4
2023-03-13T00:48:24.641Z,-1
2023-03-13T00:58:25.246Z,-2
2023-03-13T01:08:24.474Z,-1.1
2023-03-13T01:18:25.032Z,-0.7
2023-03-13T01:28:25.477Z,-2.1
2023-03-13T01:38:25.274Z,-1.7
2023-03-13T01:48:26.295Z,-4.3
2023-03-13T01:58:27.534Z,-1.3
2023-03-13T02:08:27.758Z,-1.5
2023-03-13T02:18:27.856Z,-1.5
2023-03-13T02:28:28.350Z,-1.7
2023-03-13T02:38:28.311Z,-1.3
2023-03-13T02:48:30.165Z,-4.3
2023-03-13T02:58:31.734Z,-2.1
2023-03-13T03:08:08.064Z,-1.6
2023-03-13T03:18:08.524Z,-4.8
2023-03-13T03:28:09.481Z,-2
2023-03-13T03:38:09.529Z,-2.2
2023-03-13T03:48:10.180Z,-1.9
2023-03-13T03:58:10.252Z,-2.4
2023-03-13T04:08:11.774Z,-1.9
2023-03-13T04:18:13.191Z,-2.1
2023-03-13T04:28:14.517Z,-2.3
2023-03-13T04:38:16.081Z,-1.6
2023-03-13T04:48:17.357Z,-2.4
2023-03-13T04:58:19.170Z,-1.9
2023-03-13T05:08:19.040Z,-1.8
2023-03-13T05:18:19.577Z,-2.3
2023-03-13T05:28:19.977Z,-1.3
2023-03-13T05:38:22.507Z,-10.2
2023-03-13T05:48:38.044Z,-3.6
2023-03-13T05:58:55.129Z,-1.5
2023-03-13T06:09:10.728Z,-0.8
2023-03-13T06:19:28.835Z,-0.3
2023-03-13T06:29:46.924Z,-18.1
2023-03-13T06:40:04.034Z,4.4
2023-03-13T06:50:21.654Z,5.6
2023-03-13T07:00:39.358Z,7.9
2023-03-13T07:10:56.204Z,11.9
2023-03-13T07:21:14.968Z,12.3
2023-03-13T07:31:32.151Z,13.7
2023-03-13T07:41:51.171Z,-7
2023-03-13T07:52:08.069Z,18.6
2023-03-13T08:02:24.071Z,20.3
2023-03-13T08:12:40.593Z,22.9
2023-03-13T08:22:56.762Z,23.1
2023-03-13T08:33:12.954Z,24.9
2023-03-13T08:43:33.282Z,16
2023-03-13T08:53:54.333Z,15.2
2023-03-13T09:08:24.840Z,18.6
2023-03-13T09:18:45.860Z,14.4
2023-03-13T09:29:06.158Z,11.8
2023-03-13T09:39:27.299Z,21.6
2023-03-13T09:49:48.528Z,22.9
2023-03-13T10:00:10.191Z,21.8
2023-03-13T10:10:32.224Z,25.6
2023-03-13T10:20:53.675Z,27.4
2023-03-13T10:31:15.912Z,26.9
2023-03-13T10:41:34.306Z,27.7
2023-03-13T10:51:56.707Z,19.3
2023-03-13T11:02:18.018Z,15.1
2023-03-13T11:12:37.455Z,12.1
2023-03-13T11:22:56.833Z,12.1
2023-03-13T11:33:15.569Z,11.6
2023-03-13T11:43:34.917Z,7.8
2023-03-13T11:53:52.512Z,11.3
2023-03-13T12:04:10.539Z,12.6
2023-03-13T12:14:25.972Z,11.6
2023-03-13T12:24:39.157Z,6.1
2023-03-13T12:34:51.205Z,8
2023-03-13T12:44:56.433Z,9.3
2023-03-13T12:55:00.971Z,9
2023-03-13T13:05:05.706Z,8.1
2023-03-13T13:15:08.293Z,8.6
2023-03-13T13:25:12.716Z,7.6
2023-03-13T13:35:15.967Z,7.7
2023-03-13T13:45:19.155Z,6.8
2023-03-13T13:55:22.298Z,6.6
2023-03-13T14:05:25.643Z,6.6
2023-03-13T14:15:28.744Z,6.6
2023-03-13T14:25:31.974Z,6.5
2023-03-13T14:35:34.911Z,6.6
2023-03-13T14:45:38.050Z,6.6
2023-03-13T14:55:40.392Z,6.4
2023-03-13T15:08:11.965Z,6.1
2023-03-13T15:18:14.603Z,5.6
2023-03-13T15:28:17.545Z,5.9
2023-03-13T15:38:20.034Z,5.9
2023-03-13T15:48:22.049Z,5.9
2023-03-13T15:58:23.295Z,4.8
2023-03-13T16:08:34.571Z,10.1
2023-03-13T16:18:24.832Z,10.4
2023-03-13T16:28:25.462Z,10.1
2023-03-13T16:38:26.083Z,8
2023-03-13T16:48:27.652Z,7.1
2023-03-13T16:58:28.927Z,6.9
2023-03-13T17:08:28.741Z,6.8
2023-03-13T17:18:28.534Z,6.6
2023-03-13T17:28:29.431Z,6.6
2023-03-13T17:38:28.939Z,5.4
2023-03-13T17:48:28.827Z,5.6
2023-03-13T17:58:29.563Z,1.8
2023-03-13T18:08:29.629Z,5.2
2023-03-13T18:18:29.179Z,4.4
2023-03-13T18:28:30.170Z,5.8
2023-03-13T18:38:29.841Z,5.4
2023-03-13T18:48:29.673Z,4.6
2023-03-13T18:58:29.804Z,4
2023-03-13T19:08:30.102Z,4.4
2023-03-13T19:18:30.158Z,3.3
2023-03-13T19:28:30.258Z,1.6
2023-03-13T19:38:30.193Z,2.8
2023-03-13T19:48:30.555Z,3.3
2023-03-13T19:58:31.088Z,2.5
2023-03-13T20:08:31.204Z,0.1
2023-03-13T20:18:31.973Z,2.5
2023-03-13T20:28:35.591Z,0.1
2023-03-13T20:38:32.261Z,2.3
2023-03-13T20:48:36.044Z,1.8
2023-03-13T20:58:33.517Z,1.9
2023-03-13T21:08:08.450Z,2.7
2023-03-13T21:18:08.965Z,1.4
2023-03-13T21:28:09.605Z,1.3
2023-03-13T21:38:10.141Z,1.6
2023-03-13T21:48:09.448Z,1.1
2023-03-13T21:58:10.180Z,1.2
2023-03-13T22:08:11.608Z,1.7
2023-03-13T22:18:12.661Z,1.2
2023-03-13T22:28:14.412Z,0.8
2023-03-13T22:38:15.983Z,-2.1
2023-03-13T22:48:17.286Z,0
2023-03-13T22:58:18.658Z,0.9
2023-03-13T23:08:19.735Z,0.5
2023-03-13T23:18:19.542Z,0.5
2023-03-13T23:28:19.706Z,-2.1
2023-03-13T23:38:19.682Z,0.8
2023-03-13T23:48:19.180Z,0.2
2023-03-13T23:58:20.182Z,0.2
